Time;durP1;ratioP1;P1;durP2;ratioP2;P2;SDS_P1;SDS_P2;PMS_P1;PMS_P2;Temp;Humidity;BMP_temperature;BMP_pressure;BME280_temperature;BME280_humidity;BME280_pressure;Samples;Min_cycle;Max_cycle;Signal;HPM_P1;HPM_P2
2024/03/26 00:00:40;;;;;;;7.60;3.70;;;;;;;5.10;68.28;98976.75;4869795;29;20032;-92
2024/03/26 00:03:07;;;;;;;7.40;3.50;;;;;;;5.29;68.31;99001.31;4885467;29;20025;-92
2024/03/26 00:05:33;;;;;;;5.07;3.47;;;;;;;5.23;67.67;98998.59;4869869;29;20033;-92
2024/03/26 00:07:59;;;;;;;5.47;3.30;;;;;;;5.11;67.99;98981.03;4883369;29;20048;-93
2024/03/26 00:10:26;;;;;;;4.20;3.15;;;;;;;5.17;67.99;98986.22;4870589;29;20481;-94
2024/03/26 00:12:52;;;;;;;5.72;3.17;;;;;;;5.21;67.27;98997.22;4870033;29;20036;-94
2024/03/26 00:15:17;;;;;;;6.20;3.22;;;;;;;5.13;66.35;98990.41;4886257;29;20032;-93
2024/03/26 00:17:43;;;;;;;5.75;3.25;;;;;;;5.10;66.11;98984.75;4869653;29;20029;-92
2024/03/26 00:20:12;;;;;;;6.10;3.47;;;;;;;5.23;66.32;99003.13;4885535;29;20032;-93
2024/03/26 00:22:38;;;;;;;6.22;3.60;;;;;;;5.12;67.50;98990.66;4904129;29;20072;-93
2024/03/26 00:25:05;;;;;;;5.05;3.38;;;;;;;5.13;67.95;98989.63;4903732;29;20032;-93
2024/03/26 00:27:34;;;;;;;5.05;3.85;;;;;;;5.04;67.49;98984.69;4903096;29;20024;-94
2024/03/26 00:29:59;;;;;;;4.78;3.40;;;;;;;5.07;67.72;98991.38;4919308;29;20028;-94
2024/03/26 00:32:25;;;;;;;8.05;3.50;;;;;;;5.10;66.96;98995.41;4887243;29;20075;-93
2024/03/26 00:34:50;;;;;;;6.38;3.47;;;;;;;5.10;66.59;98992.75;4887897;29;20039;-93
2024/03/26 00:37:16;;;;;;;8.27;3.45;;;;;;;5.16;66.69;99005.13;4887615;29;20028;-93
2024/03/26 00:39:41;;;;;;;9.50;4.28;;;;;;;5.19;66.97;99010.00;4887607;29;20543;-94
2024/03/26 00:42:09;;;;;;;6.75;3.78;;;;;;;5.03;65.20;98999.06;4872026;29;20100;-92
2024/03/26 00:44:34;;;;;;;5.35;3.45;;;;;;;4.98;65.48;98984.81;4919596;29;20063;-92
2024/03/26 00:46:59;;;;;;;6.32;3.75;;;;;;;4.95;65.21;98979.97;4887321;29;20024;-93
2024/03/26 00:49:26;;;;;;;6.50;4.03;;;;;;;5.15;65.35;99007.00;4888942;29;20040;-93
2024/03/26 00:51:52;;;;;;;5.85;3.45;;;;;;;5.05;66.27;98988.16;4888733;29;20048;-94
2024/03/26 00:54:17;;;;;;;9.38;4.00;;;;;;;5.09;66.13;98986.63;4903600;29;20063;-93
2024/03/26 00:56:43;;;;;;;7.07;3.70;;;;;;;5.10;65.57;99000.75;4887839;29;20530;-93
2024/03/26 00:59:12;;;;;;;5.28;3.53;;;;;;;5.02;66.43;98992.13;4888158;29;20043;-92
2024/03/26 01:01:37;;;;;;;5.75;3.08;;;;;;;5.22;65.70;98999.63;4904101;29;20455;-93
2024/03/26 01:04:03;;;;;;;4.90;3.45;;;;;;;5.27;65.33;99006.91;4887980;29;20080;-92
2024/03/26 01:06:31;;;;;;;8.27;3.97;;;;;;;5.21;65.92;99013.25;4902412;29;20032;-92
2024/03/26 01:08:57;;;;;;;6.43;3.20;;;;;;;5.21;66.09;99008.69;4918460;29;20043;-93
2024/03/26 01:11:24;;;;;;;5.57;2.92;;;;;;;5.18;66.30;99001.16;4904210;29;20083;-92
2024/03/26 01:13:52;;;;;;;3.70;3.10;;;;;;;5.20;65.64;99001.72;4888642;29;20032;-92
2024/03/26 01:16:18;;;;;;;5.47;2.90;;;;;;;5.10;65.81;98993.56;4906093;29;20082;-92
2024/03/26 01:18:45;;;;;;;3.88;2.58;;;;;;;5.06;65.73;98987.09;4922226;29;20445;-91
2024/03/26 01:21:11;;;;;;;5.75;3.67;;;;;;;5.08;65.93;98990.31;4923659;29;20067;-92
2024/03/26 01:23:36;;;;;;;5.93;3.40;;;;;;;4.91;66.80;98984.97;4912198;29;20031;-93
2024/03/26 01:26:02;;;;;;;5.85;3.65;;;;;;;5.05;67.61;99004.16;4888264;29;20021;-92
2024/03/26 01:28:29;;;;;;;8.10;3.30;;;;;;;5.02;67.17;99004.63;4888932;29;20123;-94
2024/03/26 01:30:55;;;;;;;4.72;2.83;;;;;;;5.11;65.62;99023.75;4904160;29;20028;-93
2024/03/26 01:33:21;;;;;;;5.88;2.80;;;;;;;5.03;66.02;99011.59;4919925;29;20405;-93
2024/03/26 01:35:56;;;;;;;4.68;2.97;;;;;;;4.91;67.60;98998.31;4903316;29;20455;-93
2024/03/26 01:38:21;;;;;;;8.35;4.28;;;;;;;4.81;67.80;99000.81;4899725;29;20029;-93
2024/03/26 01:40:47;;;;;;;6.18;3.25;;;;;;;4.89;68.20;99021.75;4869089;29;20036;-93
2024/03/26 01:43:13;;;;;;;5.88;3.10;;;;;;;4.75;68.09;98991.91;4876400;29;20028;-94
2024/03/26 01:45:39;;;;;;;5.07;3.10;;;;;;;4.81;66.53;99000.81;4887829;29;20124;-93
2024/03/26 01:48:04;;;;;;;5.50;3.13;;;;;;;4.79;65.64;98994.91;4871112;29;20438;-92
2024/03/26 01:50:30;;;;;;;4.60;3.13;;;;;;;4.77;65.68;98991.66;4887505;29;20039;-92
2024/03/26 01:52:57;;;;;;;8.48;4.30;;;;;;;4.78;66.55;99004.75;4881399;29;20056;-94
2024/03/26 01:55:23;;;;;;;6.75;3.38;;;;;;;4.64;68.53;99003.44;4868119;29;20028;-91
2024/03/26 01:57:50;;;;;;;6.40;3.70;;;;;;;4.68;67.83;99001.09;4883994;29;20080;-92
2024/03/26 02:00:19;;;;;;;5.38;2.92;;;;;;;4.68;66.70;98993.09;4868378;29;20063;-92
2024/03/26 02:02:46;;;;;;;8.40;3.85;;;;;;;4.66;67.62;98996.81;4882866;29;20038;-93
2024/03/26 02:05:12;;;;;;;6.85;4.32;;;;;;;4.53;68.42;98998.97;4853561;29;20024;-93
2024/03/26 02:07:43;;;;;;;5.15;3.65;;;;;;;4.44;69.12;98990.53;4851567;29;20032;-93
2024/03/26 02:10:08;;;;;;;8.23;3.65;;;;;;;4.55;68.22;98994.22;4867856;29;20036;-93
2024/03/26 02:12:34;;;;;;;4.65;3.25;;;;;;;4.56;68.49;98999.28;4874491;29;20032;-93
2024/03/26 02:15:01;;;;;;;5.97;3.25;;;;;;;4.69;68.30;99006.22;4890626;29;20028;-92
2024/03/26 02:17:27;;;;;;;5.68;3.30;;;;;;;4.57;68.71;99008.13;4879016;29;20048;-92
2024/03/26 02:19:54;;;;;;;3.80;2.80;;;;;;;4.59;67.44;99009.50;4856198;29;20084;-92
2024/03/26 02:22:23;;;;;;;5.43;3.33;;;;;;;4.59;67.83;99004.16;4883315;29;20032;-93
2024/03/26 02:24:49;;;;;;;6.65;3.67;;;;;;;4.59;67.71;99006.81;4883988;29;20391;-92
2024/03/26 02:27:15;;;;;;;11.23;4.18;;;;;;;4.52;69.03;99018.66;4883584;29;20028;-93
2024/03/26 02:29:43;;;;;;;9.43;4.80;;;;;;;4.56;69.69;99049.13;4882472;29;20024;-93
2024/03/26 02:32:12;;;;;;;7.82;4.95;;;;;;;4.36;70.67;99034.38;4886180;29;20024;-93
2024/03/26 02:34:37;;;;;;;7.60;4.55;;;;;;;4.38;70.84;99032.28;4871812;29;20028;-93
2024/03/26 02:37:04;;;;;;;6.80;4.40;;;;;;;4.33;71.34;99037.50;4873744;29;20028;-92
2024/03/26 02:39:30;;;;;;;6.60;4.68;;;;;;;4.29;70.87;99024.88;4892440;29;20550;-92
2024/03/26 02:41:57;;;;;;;7.88;4.30;;;;;;;4.33;70.34;99034.03;4898830;29;20035;-93
2024/03/26 02:44:22;;;;;;;8.93;3.90;;;;;;;4.29;71.26;99048.88;4894386;29;20041;-93
2024/03/26 02:46:48;;;;;;;5.95;4.65;;;;;;;4.32;71.22;99057.22;4898809;29;20052;-94
2024/03/26 02:49:14;;;;;;;6.00;4.50;;;;;;;4.31;70.93;99052.91;4890932;29;20032;-94
2024/03/26 02:51:40;;;;;;;11.25;7.35;;;;;;;4.24;71.30;99039.72;4905790;29;20036;-94
2024/03/26 02:54:05;;;;;;;11.30;6.28;;;;;;;4.37;71.29;99061.81;4905138;29;20063;-94
2024/03/26 02:56:31;;;;;;;8.98;5.53;;;;;;;4.17;71.31;99049.72;4909629;29;20478;-95
2024/03/26 02:58:57;;;;;;;13.57;7.88;;;;;;;3.87;72.41;99039.19;4902844;29;20094;-94
2024/03/26 03:01:23;;;;;;;9.50;6.63;;;;;;;3.94;72.24;99073.69;4929284;29;20038;-93
2024/03/26 03:03:49;;;;;;;9.10;6.22;;;;;;;3.88;71.94;99066.63;4899864;29;20038;-94
2024/03/26 03:06:15;;;;;;;10.15;5.78;;;;;;;3.97;71.42;99079.38;4897511;29;20533;-93
2024/03/26 03:08:40;;;;;;;13.38;6.65;;;;;;;3.85;70.92;99071.38;4893715;29;20083;-93
2024/03/26 03:11:07;;;;;;;10.30;5.85;;;;;;;3.90;71.29;99067.22;4905646;29;20467;-93
2024/03/26 03:13:34;;;;;;;11.05;6.18;;;;;;;3.83;71.21;99078.78;4897077;29;20509;-91
2024/03/26 03:15:59;;;;;;;11.45;6.50;;;;;;;3.84;71.44;99083.09;4872647;29;20025;-94
2024/03/26 03:18:26;;;;;;;8.63;5.95;;;;;;;3.71;72.47;99083.28;4871245;29;20187;-92
2024/03/26 03:20:51;;;;;;;9.60;6.30;;;;;;;3.76;71.95;99083.44;4884313;29;20032;-92
2024/03/26 03:23:17;;;;;;;8.77;5.80;;;;;;;3.62;71.98;99071.38;4885177;29;20029;-91
2024/03/26 03:25:42;;;;;;;12.82;6.60;;;;;;;3.82;71.78;99100.34;4895901;29;20035;-92
2024/03/26 03:28:08;;;;;;;12.02;5.88;;;;;;;3.78;71.93;99094.66;4910185;29;20034;-92
2024/03/26 03:30:34;;;;;;;12.15;6.70;;;;;;;3.74;72.22;99082.84;4909385;29;20046;-92
2024/03/26 03:33:02;;;;;;;12.18;6.28;;;;;;;3.72;72.15;99079.59;4908933;29;20368;-93
2024/03/26 03:35:29;;;;;;;11.27;6.28;;;;;;;3.78;72.42;99080.53;4909545;29;20063;-92
2024/03/26 03:37:55;;;;;;;11.75;5.82;;;;;;;3.90;72.90;99096.50;4906882;29;20024;-93
2024/03/26 03:40:22;;;;;;;10.73;6.25;;;;;;;3.75;72.07;99079.13;4898202;29;20044;-92
2024/03/26 03:42:48;;;;;;;10.35;5.35;;;;;;;3.74;71.97;99060.75;4940025;29;20129;-93
2024/03/26 03:45:14;;;;;;;11.20;5.97;;;;;;;3.70;72.44;99072.91;4907388;29;20031;-93
2024/03/26 03:47:41;;;;;;;8.52;5.70;;;;;;;3.98;72.03;99104.16;4922934;29;20071;-92
2024/03/26 03:50:06;;;;;;;7.78;5.40;;;;;;;3.91;72.48;99092.81;4924016;29;20024;-92
2024/03/26 03:52:32;;;;;;;10.15;6.18;;;;;;;3.87;72.20;99102.31;4907765;29;20046;-92
2024/03/26 03:54:57;;;;;;;10.25;6.20;;;;;;;3.83;71.95;99094.75;4892356;29;20038;-92
2024/03/26 03:57:24;;;;;;;12.00;6.03;;;;;;;3.76;72.08;99093.28;4907652;29;20106;-93
2024/03/26 03:59:49;;;;;;;14.25;5.90;;;;;;;3.88;72.29;99111.91;4907798;29;20070;-93
2024/03/26 04:02:16;;;;;;;15.65;6.40;;;;;;;3.55;72.76;99089.28;4908928;29;20027;-94
2024/03/26 04:04:41;;;;;;;16.40;6.40;;;;;;;3.56;72.26;99085.63;4907876;29;20115;-93
2024/03/26 04:07:08;;;;;;;10.20;6.38;;;;;;;3.79;72.50;99114.91;4907493;29;20023;-93
2024/03/26 04:09:34;;;;;;;12.70;5.38;;;;;;;3.78;72.94;99113.31;4893235;29;20036;-94
2024/03/26 04:11:59;;;;;;;8.60;5.20;;;;;;;3.93;71.62;99125.34;4891281;29;20047;-93
2024/03/26 04:14:25;;;;;;;12.15;5.80;;;;;;;3.83;71.50;99120.59;4891439;29;20586;-93
2024/03/26 04:16:50;;;;;;;11.30;6.20;;;;;;;3.92;71.82;99127.22;4905687;29;20470;-93
2024/03/26 04:19:17;;;;;;;11.65;5.93;;;;;;;3.82;72.02;99141.09;4923181;29;20027;-93
2024/03/26 04:21:42;;;;;;;13.45;6.90;;;;;;;3.78;72.18;99125.81;4907179;29;20038;-93
2024/03/26 04:24:08;;;;;;;13.48;6.30;;;;;;;3.73;73.16;99128.34;4923207;29;20380;-93
2024/03/26 04:26:35;;;;;;;25.27;7.20;;;;;;;3.59;72.28;99106.44;4924266;29;20028;-93
2024/03/26 04:29:02;;;;;;;12.13;6.63;;;;;;;3.58;72.04;99126.94;4907403;29;20038;-93
2024/03/26 04:31:28;;;;;;;13.75;6.10;;;;;;;3.58;72.43;99128.78;4922872;29;20110;-93
2024/03/26 04:33:55;;;;;;;15.80;6.72;;;;;;;3.73;71.97;99150.44;4907817;29;20066;-94
2024/03/26 04:36:22;;;;;;;16.90;6.78;;;;;;;3.76;72.02;99171.31;4923451;29;20024;-93
2024/03/26 04:38:49;;;;;;;8.18;5.03;;;;;;;3.74;71.87;99160.06;4907598;29;20031;-94
2024/03/26 04:41:14;;;;;;;10.10;5.43;;;;;;;3.62;72.30;99160.03;4907715;29;20035;-93
2024/03/26 04:43:42;;;;;;;12.00;5.45;;;;;;;3.68;71.61;99153.00;4893168;29;20031;-92
2024/03/26 04:46:08;;;;;;;15.60;6.85;;;;;;;3.59;72.44;99165.00;4923853;29;20032;-93
2024/03/26 04:48:33;;;;;;;13.38;6.63;;;;;;;3.66;71.95;99156.94;4907024;29;20031;-93
2024/03/26 04:50:59;;;;;;;17.67;6.50;;;;;;;3.85;71.10;99174.44;4906832;29;20494;-94
2024/03/26 04:53:25;;;;;;;11.40;6.05;;;;;;;3.93;70.99;99165.31;4906184;29;20071;-93
2024/03/26 04:55:50;;;;;;;19.65;6.78;;;;;;;4.13;70.47;99180.94;4922691;29;20038;-92
2024/03/26 04:58:16;;;;;;;10.48;6.75;;;;;;;4.40;70.66;99189.28;4898846;29;20028;-94
2024/03/26 05:00:42;;;;;;;12.05;6.57;;;;;;;4.51;70.89;99180.50;4903896;29;20044;-92
2024/03/26 05:03:09;;;;;;;16.15;6.45;;;;;;;4.63;71.26;99186.63;4888012;29;20036;-92
2024/03/26 05:05:36;;;;;;;20.90;8.02;;;;;;;4.58;70.45;99183.84;4903157;29;20068;-92
2024/03/26 05:08:01;;;;;;;15.55;7.65;;;;;;;4.52;70.00;99173.28;4872279;29;20048;-93
2024/03/26 05:10:26;;;;;;;19.15;7.68;;;;;;;4.58;71.19;99194.50;4876887;29;20099;-93
2024/03/26 05:12:54;;;;;;;12.00;7.35;;;;;;;4.60;70.74;99192.41;4871030;29;20036;-94
2024/03/26 05:15:19;;;;;;;12.82;6.75;;;;;;;4.61;71.03;99199.38;4870292;29;20040;-93
2024/03/26 05:17:47;;;;;;;18.55;7.35;;;;;;;4.61;70.89;99202.03;4901660;29;20088;-92
2024/03/26 05:20:13;;;;;;;16.50;6.32;;;;;;;4.79;69.25;99202.94;4886418;29;20475;-92
2024/03/26 05:22:39;;;;;;;8.77;5.60;;;;;;;4.93;68.52;99222.19;4870663;29;20028;-91
2024/03/26 05:25:06;;;;;;;13.93;6.45;;;;;;;4.92;67.75;99199.19;4869239;29;20050;-90
2024/03/26 05:27:34;;;;;;;14.95;5.65;;;;;;;5.26;66.68;99229.50;4868624;29;20040;-91
2024/03/26 05:30:49;;;;;;;;;;;;;;;;;;;;;
2024/03/26 05:33:20;;;;;;;10.15;5.03;;;;;;;5.44;60.66;99196.50;4850638;29;20129;-92
2024/03/26 05:35:46;;;;;;;10.90;5.43;;;;;;;5.66;59.59;99197.44;4885603;29;20036;-94
2024/03/26 05:38:12;;;;;;;7.90;2.65;;;;;;;5.80;58.73;99200.59;4869429;29;20032;-90
2024/03/26 05:40:37;;;;;;;7.13;3.13;;;;;;;6.14;58.27;99224.69;4869150;29;20033;-91
2024/03/26 05:43:03;;;;;;;8.95;3.22;;;;;;;6.06;57.94;99196.53;4883487;29;20063;-93
2024/03/26 05:45:29;;;;;;;11.98;2.60;;;;;;;6.17;57.33;99188.66;4869463;29;20033;-91
2024/03/26 05:47:58;;;;;;;5.65;2.95;;;;;;;6.26;57.70;99190.66;4886385;29;20033;-91
2024/03/26 05:50:23;;;;;;;4.00;2.80;;;;;;;6.62;56.82;99225.97;4870306;29;20119;-96
2024/03/26 05:52:55;;;;;;;12.95;2.85;;;;;;;6.62;56.14;99217.94;4871097;29;20534;-95
2024/03/26 05:55:24;;;;;;;;;;;;;;;6.82;56.93;99225.41;4859753;29;20029;-93
2024/03/26 05:57:50;;;;;;;14.18;3.60;;;;;;;6.65;57.63;99213.97;4874052;29;19899;-96
2024/03/26 06:00:42;;;;;;;3.67;2.53;;;;;;;6.95;56.08;99228.78;4855916;29;20096;-94
2024/03/26 06:03:09;;;;;;;6.82;3.35;;;;;;;6.94;55.93;99208.44;4869018;29;20071;-95
2024/03/26 06:05:39;;;;;;;9.77;3.45;;;;;;;6.99;56.79;99216.53;4890293;29;20131;-92
2024/03/26 06:08:32;;;;;;;10.88;3.78;;;;;;;7.00;56.64;99213.63;4915462;29;20032;-93
2024/03/26 06:11:01;;;;;;;13.23;3.70;;;;;;;7.06;56.31;99223.34;4914173;29;20043;-95
2024/03/26 06:13:27;;;;;;;8.50;2.20;;;;;;;7.01;55.18;99191.13;4913969;29;20099;-93
2024/03/26 06:16:07;;;;;;;8.85;3.13;;;;;;;7.25;53.70;99217.66;4906007;29;20039;-92
2024/03/26 06:18:39;;;;;;;5.95;2.20;;;;;;;7.38;53.02;99213.78;4906515;29;20039;-94
2024/03/26 06:21:08;;;;;;;6.03;3.35;;;;;;;7.48;53.08;99216.56;4924529;29;20486;-95
2024/03/26 06:23:54;;;;;;;9.30;3.17;;;;;;;7.74;53.85;99222.19;4895990;29;20031;-96
2024/03/26 06:26:53;;;;;;;10.32;3.88;;;;;;;7.81;52.04;99190.63;4937626;29;20047;-96
2024/03/26 06:29:20;;;;;;;7.97;3.58;;;;;;;8.03;52.20;99195.91;4924184;29;20048;-94
2024/03/26 06:31:55;;;;;;;9.13;3.83;;;;;;;8.16;52.81;99226.88;4907613;29;20032;-94
2024/03/26 06:34:23;;;;;;;7.88;3.40;;;;;;;8.34;52.76;99223.75;4925751;29;20046;-93
2024/03/26 06:37:43;;;;;;;4.80;3.08;;;;;;;8.42;50.75;99193.81;4903917;29;20020;-92
2024/03/26 06:44:23;;;;;;;3.65;2.20;;;;;;;8.86;48.45;99200.75;4825052;29;20121;-92
2024/03/26 06:46:58;;;;;;;14.50;5.53;;;;;;;9.28;48.19;99230.22;4861735;29;20116;-92
2024/03/26 06:49:23;;;;;;;30.77;5.75;;;;;;;9.19;48.61;99204.91;4897674;29;20028;-93
2024/03/26 06:51:51;;;;;;;8.73;2.97;;;;;;;9.33;47.60;99216.00;4908406;29;20099;-91
2024/03/26 06:54:17;;;;;;;7.75;2.83;;;;;;;9.43;47.16;99220.59;4892909;29;20056;-94
2024/03/26 06:57:08;;;;;;;6.22;2.88;;;;;;;9.45;46.05;99197.75;4889566;29;20470;-92
2024/03/26 06:59:35;;;;;;;19.20;5.18;;;;;;;9.62;47.49;99207.47;4898298;29;20119;-93
2024/03/26 07:02:03;;;;;;;4.57;2.50;;;;;;;9.81;46.59;99213.94;4887952;29;20047;-94
2024/03/26 07:19:02;;;;;;;7.93;2.45;;;;;;;10.60;43.93;99200.22;4864725;29;20138;-91
2024/03/26 07:21:27;;;;;;;2.83;1.80;;;;;;;10.84;43.18;99206.63;4861251;29;20197;-91
2024/03/26 07:28:06;;;;;;;12.40;2.78;;;;;;;11.22;43.50;99222.38;4874205;29;20097;-92
2024/03/26 07:30:59;;;;;;;4.65;1.88;;;;;;;11.49;41.71;99225.47;4854073;29;20037;-93
2024/03/26 07:33:31;;;;;;;9.40;3.25;;;;;;;11.46;41.68;99196.38;4848579;29;20136;-91
2024/03/26 07:35:59;;;;;;;5.20;2.30;;;;;;;11.60;40.73;99199.28;4841148;29;20052;-93
2024/03/26 07:38:25;;;;;;;7.93;2.75;;;;;;;11.69;40.62;99197.59;4903119;29;20065;-93
2024/03/26 07:40:56;;;;;;;6.03;3.00;;;;;;;11.69;41.06;99197.59;4892183;29;20096;-92
2024/03/26 07:44:28;;;;;;;7.28;3.90;;;;;;;11.90;41.08;99187.47;4892979;29;20034;-93
2024/03/26 07:47:13;;;;;;;9.35;2.85;;;;;;;12.20;39.80;99218.03;4907296;29;20032;-92
2024/03/26 07:49:39;;;;;;;7.47;5.15;;;;;;;12.24;39.13;99205.56;4917041;29;20039;-92
2024/03/26 07:52:31;;;;;;;4.90;2.72;;;;;;;12.33;38.25;99220.06;4899143;29;20047;-92
2024/03/26 07:54:57;;;;;;;5.28;2.67;;;;;;;12.36;38.67;99204.38;4897398;29;20063;-93
2024/03/26 07:57:35;;;;;;;;;;;;;;;;;;;;;
2024/03/26 08:00:06;;;;;;;7.65;2.92;;;;;;;12.69;38.43;99200.78;4906112;29;20107;-93
2024/03/26 08:02:34;;;;;;;10.18;4.90;;;;;;;12.72;38.32;99192.13;4901560;29;20028;-93
2024/03/26 08:05:00;;;;;;;6.25;3.45;;;;;;;12.78;38.06;99182.06;4878014;29;20032;-93
2024/03/26 08:07:29;;;;;;;7.00;3.28;;;;;;;12.84;37.94;99177.41;4912697;29;20127;-92
2024/03/26 08:09:57;;;;;;;8.75;2.58;;;;;;;12.84;38.13;99180.91;4890300;29;20487;-92
2024/03/26 08:12:24;;;;;;;13.55;3.25;;;;;;;12.83;38.36;99171.19;4908582;29;20032;-92
2024/03/26 08:14:50;;;;;;;3.97;2.83;;;;;;;12.96;37.95;99153.47;4891370;29;20039;-92
2024/03/26 08:17:16;;;;;;;5.68;2.42;;;;;;;12.89;35.98;99169.25;4891902;29;20047;-94
2024/03/26 08:19:44;;;;;;;6.47;3.55;;;;;;;13.08;36.22;99156.56;4894965;29;20031;-93
2024/03/26 08:22:12;;;;;;;9.02;2.90;;;;;;;13.05;35.09;99132.84;4892795;29;20042;-95
2024/03/26 08:24:39;;;;;;;11.27;3.70;;;;;;;13.12;35.52;99127.06;4892931;29;20028;-90
2024/03/26 08:27:05;;;;;;;11.07;2.60;;;;;;;13.12;35.04;99132.47;4892422;29;20032;-92
2024/03/26 08:29:31;;;;;;;12.60;2.60;;;;;;;13.41;35.46;99154.00;4888167;29;20472;-95
2024/03/26 08:31:56;;;;;;;2.90;2.03;;;;;;;13.43;33.70;99137.47;4889838;29;20108;-92
2024/03/26 08:34:25;;;;;;;6.22;2.03;;;;;;;13.61;34.81;99150.16;4895241;29;20036;-90
2024/03/26 08:36:51;;;;;;;4.38;2.00;;;;;;;13.43;33.49;99121.25;4891757;29;20024;-94
2024/03/26 08:39:41;;;;;;;6.00;1.95;;;;;;;13.42;31.17;99116.94;4876095;29;20028;-92
2024/03/26 08:42:11;;;;;;;3.03;2.00;;;;;;;13.53;30.36;99130.03;4901030;29;20040;-95
2024/03/26 08:44:45;;;;;;;5.30;2.40;;;;;;;13.56;31.82;99128.63;4890280;29;20028;-94
2024/03/26 08:50:30;;;;;;;2.70;1.60;;;;;;;13.84;30.21;99143.06;4869003;29;20057;-90
2024/03/26 08:53:00;;;;;;;6.90;2.40;;;;;;;13.76;31.30;99119.38;4868012;29;20135;-92
2024/03/26 08:55:26;;;;;;;5.45;2.60;;;;;;;13.82;29.56;99103.84;4888968;29;20512;-90
2024/03/26 08:57:52;;;;;;;7.10;2.38;;;;;;;13.89;28.89;99110.50;4887942;29;20067;-89
2024/03/26 09:00:19;;;;;;;2.33;1.40;;;;;;;13.96;28.06;99110.09;4890131;29;20066;-91
2024/03/26 09:02:49;;;;;;;2.92;1.40;;;;;;;14.14;26.17;99135.53;4889423;29;20044;-92
2024/03/26 09:05:18;;;;;;;1.95;1.48;;;;;;;13.99;26.35;99109.53;4898252;29;20040;-93
2024/03/26 09:07:44;;;;;;;3.75;1.92;;;;;;;14.13;27.57;99131.19;4884419;29;20044;-92
2024/03/26 09:10:19;;;;;;;5.25;2.60;;;;;;;14.22;28.13;99117.78;4917412;29;20530;-92
2024/03/26 09:12:55;;;;;;;3.38;1.77;;;;;;;14.21;27.60;99127.00;4897582;29;20036;-93
2024/03/26 09:15:21;;;;;;;5.57;2.80;;;;;;;14.12;27.55;99114.16;4892993;29;20070;-93
2024/03/26 09:17:57;;;;;;;10.40;1.88;;;;;;;14.15;26.96;99127.09;4890940;29;20028;-92
2024/03/26 09:20:23;;;;;;;2.40;1.98;;;;;;;14.05;27.89;99123.75;4907059;29;20044;-91
2024/03/26 09:23:26;;;;;;;4.70;1.58;;;;;;;14.13;26.68;99132.03;4906211;29;20056;-92
2024/03/26 09:25:53;;;;;;;2.05;1.35;;;;;;;14.26;26.02;99130.44;4831551;29;20071;-92
2024/03/26 09:31:43;;;;;;;4.13;2.00;;;;;;;14.19;27.72;99116.47;4863525;29;20072;-95
2024/03/26 09:34:12;;;;;;;5.90;2.10;;;;;;;14.32;28.00;99131.16;4858453;29;20459;-96
2024/03/26 09:36:49;;;;;;;2.05;1.67;;;;;;;14.39;27.16;99117.22;4848490;29;20048;-95
2024/03/26 09:39:16;;;;;;;3.17;1.98;;;;;;;14.60;26.94;99121.16;4830563;29;20493;-94
2024/03/26 09:41:42;;;;;;;5.70;2.08;;;;;;;14.58;27.89;99096.25;4844850;29;20182;-95
2024/03/26 09:44:09;;;;;;;6.97;2.10;;;;;;;14.70;27.84;99110.09;4815849;29;20061;-95
2024/03/26 09:46:38;;;;;;;5.75;1.60;;;;;;;14.72;27.85;99120.66;4830938;29;20045;-95
2024/03/26 09:49:04;;;;;;;2.55;1.55;;;;;;;14.81;27.75;99107.19;4850803;29;20038;-95
2024/03/26 09:51:36;;;;;;;8.85;2.10;;;;;;;15.07;27.22;99113.69;4852295;29;20129;-96
2024/03/26 09:54:14;;;;;;;;;;;;;;;;;;;;;
2024/03/26 09:56:46;;;;;;;2.42;1.15;;;;;;;15.20;28.00;99100.41;4873670;29;20123;-94
2024/03/26 09:59:14;;;;;;;5.65;1.58;;;;;;;15.08;28.57;99109.84;4890513;29;20055;-96
2024/03/26 10:05:06;;;;;;;6.53;1.92;;;;;;;15.49;27.10;99124.41;4899518;29;20048;-96
2024/03/26 10:08:23;;;;;;;2.55;1.58;;;;;;;15.56;27.79;99113.91;4902181;29;20028;-96
2024/03/26 10:10:57;;;;;;;2.70;1.77;;;;;;;15.71;26.29;99097.28;4848118;29;20070;-94
2024/03/26 10:16:31;;;;;;;5.35;2.30;;;;;;;15.68;25.47;99113.38;4832327;29;20038;-95
2024/03/26 10:19:01;;;;;;;1.73;1.20;;;;;;;15.70;25.31;99109.25;4819754;29;20042;-96
2024/03/26 10:21:39;;;;;;;3.35;1.38;;;;;;;15.67;25.41;99112.59;4837091;29;20069;-95
2024/03/26 10:24:08;;;;;;;1.83;1.20;;;;;;;15.69;24.13;99106.84;4829670;29;20557;-95
2024/03/26 10:26:53;;;;;;;2.17;1.10;;;;;;;15.69;24.14;99090.56;4812378;29;20050;-93
2024/03/26 10:36:24;;;;;;;2.70;1.67;;;;;;;16.26;25.51;99096.16;4845530;29;20582;-94
2024/03/26 10:38:51;;;;;;;5.95;1.63;;;;;;;16.12;25.67;99068.28;4829196;29;20264;-93
2024/03/26 10:41:24;;;;;;;4.35;1.63;;;;;;;16.33;25.55;99077.50;4843835;29;20072;-93
2024/03/26 10:43:53;;;;;;;2.53;1.10;;;;;;;16.30;25.09;99059.09;4829248;29;20062;-93
2024/03/26 10:46:19;;;;;;;1.67;1.15;;;;;;;16.32;24.44;99078.63;4835641;29;20081;-93
2024/03/26 10:48:46;;;;;;;5.15;1.70;;;;;;;16.46;24.88;99072.28;4860671;29;20037;-93
2024/03/26 10:51:12;;;;;;;8.70;3.55;;;;;;;16.51;25.60;99077.56;4866532;29;20175;-93
2024/03/26 10:53:38;;;;;;;5.57;1.40;;;;;;;16.27;25.46;99065.19;4855049;29;20057;-93
2024/03/26 10:56:05;;;;;;;1.52;1.00;;;;;;;16.26;25.10;99084.50;4892926;29;20043;-91
2024/03/26 10:58:30;;;;;;;2.95;1.40;;;;;;;16.28;25.48;99055.91;4906961;29;20164;-91
2024/03/26 11:01:23;;;;;;;3.17;1.70;;;;;;;16.32;25.26;99045.22;4892828;29;20492;-91
2024/03/26 11:03:49;;;;;;;5.75;1.65;;;;;;;16.12;24.23;99027.56;4894652;29;20039;-93
2024/03/26 11:06:19;;;;;;;1.10;0.80;;;;;;;16.64;24.27;99063.03;4892850;29;20032;-91
2024/03/26 11:08:48;;;;;;;1.90;1.15;;;;;;;16.73;24.46;99049.50;4907307;29;20091;-93
2024/03/26 11:11:18;;;;;;;1.77;0.73;;;;;;;16.68;24.31;99030.59;4887277;29;20035;-92
2024/03/26 11:13:46;;;;;;;1.48;1.00;;;;;;;16.75;24.06;99012.69;4895161;29;20040;-94
2024/03/26 11:19:30;;;;;;;3.55;1.70;;;;;;;16.61;23.65;99011.25;4892643;29;20148;-93
2024/03/26 11:22:08;;;;;;;;;;;;;;;;;;;;;
2024/03/26 11:24:35;;;;;;;4.13;1.45;;;;;;;16.36;24.95;99029.88;4889998;29;20123;-94
2024/03/26 11:27:03;;;;;;;3.33;1.10;;;;;;;16.47;23.99;99016.81;4894260;29;20067;-96
2024/03/26 11:29:33;;;;;;;6.28;2.63;;;;;;;16.76;24.24;98999.91;4888747;29;20156;-94
2024/03/26 11:31:59;;;;;;;2.42;1.17;;;;;;;16.88;23.36;98981.06;4892011;29;20040;-92
2024/03/26 11:34:29;;;;;;;4.78;1.30;;;;;;;17.15;23.62;98992.75;4911983;29;20043;-94
2024/03/26 11:37:23;;;;;;;4.95;1.67;;;;;;;16.93;24.38;98970.03;4905650;29;20024;-96
2024/03/26 11:40:12;;;;;;;1.50;0.82;;;;;;;16.92;23.63;98962.19;4899980;29;20052;-94
2024/03/26 11:42:40;;;;;;;1.15;0.73;;;;;;;17.22;23.00;98965.03;4890419;29;20104;-95
2024/03/26 11:45:12;;;;;;;2.67;1.10;;;;;;;17.28;23.69;98950.13;4907096;29;20108;-94
2024/03/26 11:47:40;;;;;;;37.42;26.23;;;;;;;17.25;24.14;98964.41;4917420;29;20056;-95
2024/03/26 11:50:26;;;;;;;20.42;13.90;;;;;;;17.26;23.10;98958.63;4895903;29;20036;-95
2024/03/26 11:52:53;;;;;;;4.95;2.30;;;;;;;17.02;23.80;98955.63;4905900;29;20032;-95
2024/03/26 11:55:18;;;;;;;2.40;1.60;;;;;;;16.73;24.09;98946.97;4913232;29;20056;-94
2024/03/26 11:57:44;;;;;;;1.23;0.85;;;;;;;16.94;23.96;98957.22;4911102;29;20347;-94
2024/03/26 12:00:52;;;;;;;;;;;;;;;;;;;;;
2024/03/26 12:04:00;;;;;;;1.65;0.90;;;;;;;17.01;23.74;98927.63;4917975;29;20122;-95
2024/03/26 12:06:36;;;;;;;1.88;1.00;;;;;;;17.29;23.82;98951.75;4928373;29;20051;-95
2024/03/26 12:09:25;;;;;;;6.95;2.65;;;;;;;17.06;23.51;98902.19;4898270;29;20032;-96
2024/03/26 12:12:20;;;;;;;3.35;1.50;;;;;;;17.26;23.69;98909.63;4881040;29;20486;-95
2024/03/26 12:14:48;;;;;;;1.92;0.90;;;;;;;17.42;23.72;98923.53;4880657;29;20118;-93
2024/03/26 12:18:18;;;;;;;;;;;;;;;;;;;;;
2024/03/26 12:20:55;;;;;;;;;;;;;;;;;;;;;
2024/03/26 12:23:34;;;;;;;2.30;1.23;;;;;;;17.45;23.56;98901.13;4869097;29;20140;-92
2024/03/26 12:26:02;;;;;;;5.53;1.48;;;;;;;17.55;24.30;98902.66;4859643;29;20037;-92
2024/03/26 12:28:32;;;;;;;1.33;0.82;;;;;;;17.27;23.45;98911.25;4903650;29;20044;-96
2024/03/26 12:31:47;;;;;;;1.40;0.85;;;;;;;17.43;22.95;98892.50;4898311;29;20064;-96
2024/03/26 12:34:21;;;;;;;1.90;1.08;;;;;;;17.81;22.47;98913.47;4906781;29;20104;-95
2024/03/26 12:40:17;;;;;;;2.35;0.90;;;;;;;18.12;22.27;98913.16;4906301;29;20047;-95
2024/03/26 12:42:59;;;;;;;3.22;1.40;;;;;;;18.25;22.75;98894.97;4930551;29;20044;-95
2024/03/26 12:49:56;;;;;;;;;;;;;;;;;;;;;
2024/03/26 12:59:27;;;;;;;4.75;2.00;;;;;;;18.46;23.09;98888.72;4860074;29;20122;-92
2024/03/26 13:01:55;;;;;;;17.38;5.20;;;;;;;18.30;24.17;98885.78;4818143;29;20489;-93